createdAt,value
2022-11-29T00:03:38.255Z,29.50
2022-11-29T00:07:41.332Z,19.17
2022-11-29T00:12:01.866Z,22.20
2022-11-29T00:16:06.516Z,20.60
2022-11-29T00:20:12.183Z,26.65
2022-11-29T00:24:15.529Z,25.70
2022-11-29T00:28:18.573Z,17.80
2022-11-29T00:32:21.622Z,18.67
2022-11-29T00:36:27.012Z,17.85
2022-11-29T00:40:30.053Z,19.02
2022-11-29T00:44:33.109Z,19.73
2022-11-29T00:48:36.658Z,16.15
2022-11-29T00:52:41.121Z,19.83
2022-11-29T00:56:44.445Z,21.83
2022-11-29T01:00:47.682Z,21.75
2022-11-29T01:04:50.755Z,23.77
2022-11-29T01:08:55.231Z,23.88
2022-11-29T01:12:58.312Z,20.83
2022-11-29T01:17:01.694Z,19.48
2022-11-29T01:21:07.382Z,20.90
2022-11-29T01:25:13.911Z,31.42
2022-11-29T01:29:16.942Z,18.98
2022-11-29T01:33:20.157Z,29.95
2022-11-29T01:37:23.235Z,25.58
2022-11-29T01:41:29.301Z,23.98
2022-11-29T01:45:39.314Z,19.27
2022-11-29T01:49:45.258Z,25.10
2022-11-29T01:53:48.430Z,16.10
2022-11-29T01:57:53.251Z,26.55
2022-11-29T02:02:01.655Z,22.48
2022-11-29T02:06:07.318Z,18.38
2022-11-29T02:10:11.249Z,31.08
2022-11-29T02:14:34.605Z,28.33
2022-11-29T02:18:51.921Z,32.47
2022-11-29T02:23:00.418Z,35.55
2022-11-29T02:27:25.831Z,32.38
2022-11-29T02:32:01.649Z,40.15
2022-11-29T02:36:35.664Z,37.72
2022-11-29T02:40:58.948Z,34.83
2022-11-29T02:45:11.689Z,39.97
2022-11-29T02:49:21.188Z,35.95
2022-11-29T02:53:31.347Z,29.50
2022-11-29T02:57:41.321Z,42.75
2022-11-29T03:01:53.288Z,41.08
2022-11-29T03:06:06.931Z,46.83
2022-11-29T03:10:23.123Z,41.53
2022-11-29T03:14:28.385Z,32.80
2022-11-29T03:18:44.045Z,51.35
2022-11-29T03:22:56.509Z,50.60
2022-11-29T03:27:07.302Z,50.88
2022-11-29T03:31:15.605Z,35.95
2022-11-29T03:35:25.895Z,43.25
2022-11-29T03:39:34.420Z,45.92
2022-11-29T03:43:44.307Z,47.00
2022-11-29T03:47:55.725Z,34.22
2022-11-29T03:52:08.458Z,41.70
2022-11-29T03:56:29.505Z,44.58
2022-11-29T04:00:46.141Z,45.97
2022-11-29T04:05:20.748Z,52.15
2022-11-29T04:09:49.367Z,42.22
2022-11-29T04:14:15.345Z,46.75
2022-11-29T04:18:59.995Z,59.30
2022-11-29T04:23:28.835Z,48.28
2022-11-29T04:27:41.964Z,44.42
2022-11-29T04:32:04.393Z,63.33
2022-11-29T04:36:39.574Z,51.58
2022-11-29T04:40:57.311Z,65.63
2022-11-29T04:45:25.918Z,69.15
2022-11-29T04:49:47.035Z,56.25
2022-11-29T04:53:57.678Z,56.70
2022-11-29T04:58:07.647Z,53.88
2022-11-29T05:02:21.176Z,65.07
2022-11-29T05:06:31.861Z,64.63
2022-11-29T05:10:47.113Z,56.25
2022-11-29T05:15:12.279Z,70.88
2022-11-29T05:19:43.084Z,72.63
2022-11-29T05:24:01.085Z,57.25
2022-11-29T05:28:13.904Z,67.00
2022-11-29T05:32:33.389Z,66.22
2022-11-29T05:36:44.700Z,63.17
2022-11-29T05:40:59.427Z,65.95
2022-11-29T05:45:09.951Z,68.38
2022-11-29T05:49:23.911Z,60.30
2022-11-29T05:53:33.578Z,68.90
2022-11-29T05:57:44.634Z,60.63
2022-11-29T06:01:56.238Z,61.50
2022-11-29T06:06:06.056Z,56.40
2022-11-29T06:10:13.714Z,67.82
2022-11-29T06:14:31.854Z,51.75
2022-11-29T06:19:13.956Z,62.90
2022-11-29T06:23:49.927Z,57.05
2022-11-29T06:28:28.519Z,57.20
2022-11-29T06:32:40.285Z,75.05
2022-11-29T06:36:50.543Z,67.30
2022-11-29T06:41:01.351Z,64.20
2022-11-29T06:45:06.289Z,63.08
2022-11-29T06:49:14.145Z,77.55
2022-11-29T06:53:30.933Z,71.07
2022-11-29T06:57:47.450Z,54.70
2022-11-29T07:01:57.327Z,56.63
2022-11-29T07:06:14.293Z,69.43
2022-11-29T07:10:23.183Z,56.28
2022-11-29T07:14:26.925Z,66.30
2022-11-29T07:18:35.327Z,73.15
2022-11-29T07:22:56.442Z,75.90
2022-11-29T07:27:08.346Z,53.15
2022-11-29T07:31:18.383Z,53.60
2022-11-29T07:35:29.468Z,58.60
2022-11-29T07:39:44.930Z,60.97
2022-11-29T07:43:57.413Z,68.60
2022-11-29T07:48:00.966Z,59.95
2022-11-29T07:52:04.127Z,74.18
2022-11-29T07:56:07.550Z,70.55
2022-11-29T08:00:14.063Z,66.40
2022-11-29T08:04:17.166Z,65.35
2022-11-29T08:08:20.256Z,86.65
2022-11-29T08:12:23.575Z,76.07
2022-11-29T08:16:28.202Z,55.42
2022-11-29T08:20:31.384Z,75.53
2022-11-29T08:24:34.580Z,88.75
2022-11-29T08:28:37.634Z,72.53
2022-11-29T08:32:44.806Z,66.75
2022-11-29T08:36:50.743Z,56.60
2022-11-29T08:40:53.825Z,57.28
2022-11-29T08:44:56.854Z,55.28
2022-11-29T08:49:01.405Z,66.93
2022-11-29T08:53:22.126Z,64.90
2022-11-29T08:57:39.660Z,56.97
2022-11-29T09:01:43.718Z,69.68
2022-11-29T09:05:48.423Z,82.10
2022-11-29T09:09:51.491Z,115.35
2022-11-29T09:13:56.946Z,94.30
2022-11-29T09:18:00.084Z,90.78
2022-11-29T09:22:04.699Z,104.68
2022-11-29T09:26:08.853Z,74.05
2022-11-29T09:30:12.970Z,92.18
2022-11-29T09:34:16.736Z,87.38
2022-11-29T09:38:24.133Z,85.55
2022-11-29T09:42:38.234Z,98.07
2022-11-29T09:46:55.736Z,88.07
2022-11-29T09:51:15.427Z,98.63
2022-11-29T09:55:37.485Z,98.00
2022-11-29T09:59:44.604Z,108.03
2022-11-29T10:03:52.908Z,136.48
2022-11-29T10:07:59.789Z,148.07
2022-11-29T10:12:14.040Z,116.80
2022-11-29T10:16:23.510Z,131.07
2022-11-29T10:20:30.514Z,134.30
2022-11-29T10:24:34.557Z,116.05
2022-11-29T10:28:44.812Z,114.55
2022-11-29T10:32:51.861Z,93.93
2022-11-29T10:36:59.500Z,127.07
2022-11-29T10:41:08.521Z,132.18
2022-11-29T10:45:18.071Z,94.50
2022-11-29T10:49:26.105Z,133.25
2022-11-29T10:53:35.790Z,121.25
2022-11-29T10:58:36.821Z,104.45
2022-11-29T11:02:46.210Z,112.32
2022-11-29T11:07:02.691Z,80.90
2022-11-29T11:11:15.022Z,69.68
2022-11-29T11:15:29.716Z,71.43
2022-11-29T11:19:35.694Z,55.30
2022-11-29T11:23:46.682Z,57.42
2022-11-29T11:27:50.164Z,53.75
2022-11-29T11:31:56.728Z,52.78
2022-11-29T11:36:11.285Z,49.00
2022-11-29T11:40:27.347Z,42.35
2022-11-29T11:44:53.699Z,40.90
2022-11-29T11:48:57.151Z,41.78
2022-11-29T11:53:05.693Z,43.47
2022-11-29T11:57:18.494Z,43.90
2022-11-29T12:01:28.335Z,47.65
2022-11-29T12:05:32.198Z,38.55
2022-11-29T12:09:43.264Z,40.47
2022-11-29T12:14:14.660Z,41.95
2022-11-29T12:18:31.371Z,34.33
2022-11-29T12:22:45.252Z,39.50
2022-11-29T12:26:58.275Z,45.25
2022-11-29T12:31:15.598Z,44.95
2022-11-29T12:35:37.140Z,33.25
2022-11-29T12:39:58.209Z,39.30
2022-11-29T12:44:15.935Z,41.83
2022-11-29T12:48:30.124Z,34.75
2022-11-29T12:52:42.928Z,32.70
2022-11-29T12:56:54.558Z,34.10
2022-11-29T13:01:10.236Z,27.08
2022-11-29T13:05:21.914Z,27.73
2022-11-29T13:09:48.240Z,27.38
2022-11-29T13:14:50.060Z,28.50
2022-11-29T13:19:00.463Z,31.15
2022-11-29T13:23:13.898Z,36.00
2022-11-29T13:27:22.850Z,36.80
2022-11-29T13:31:27.522Z,33.08
2022-11-29T13:35:57.144Z,51.15
2022-11-29T13:40:12.853Z,31.45
2022-11-29T13:44:22.949Z,43.13
2022-11-29T13:48:37.143Z,43.90
2022-11-29T13:52:44.594Z,43.33
2022-11-29T13:56:48.197Z,43.72
2022-11-29T14:00:53.207Z,35.17
2022-11-29T14:04:57.038Z,39.17
2022-11-29T14:09:25.289Z,40.35
2022-11-29T14:13:34.323Z,36.53
2022-11-29T14:17:49.654Z,38.58
2022-11-29T14:22:19.240Z,45.17
2022-11-29T14:26:29.213Z,46.45
2022-11-29T14:30:51.691Z,46.05
2022-11-29T14:34:59.368Z,34.85
2022-11-29T14:39:23.763Z,53.05
2022-11-29T14:43:33.579Z,33.35
2022-11-29T14:47:39.088Z,25.08
2022-11-29T14:52:10.022Z,45.08
2022-11-29T14:56:43.597Z,32.20
2022-11-29T15:01:11.045Z,45.97
2022-11-29T15:05:19.777Z,42.58
2022-11-29T15:09:25.300Z,34.08
2022-11-29T15:13:31.896Z,49.72
2022-11-29T15:17:48.500Z,37.28
2022-11-29T15:22:00.805Z,41.58
2022-11-29T15:26:04.463Z,47.40
2022-11-29T15:30:20.453Z,55.70
2022-11-29T15:34:32.332Z,54.53
2022-11-29T15:38:45.096Z,42.97
2022-11-29T15:42:52.874Z,51.00
2022-11-29T15:46:56.477Z,50.78
2022-11-29T15:51:10.204Z,51.78
2022-11-29T15:55:15.049Z,36.85
2022-11-29T15:59:33.758Z,44.53
2022-11-29T16:03:41.738Z,38.35
2022-11-29T16:07:49.243Z,40.05
2022-11-29T16:11:52.916Z,46.50
2022-11-29T16:16:07.283Z,38.72
2022-11-29T16:20:24.815Z,37.35
2022-11-29T16:24:29.988Z,45.78
2022-11-29T16:28:35.953Z,36.90
2022-11-29T16:32:44.465Z,52.70
2022-11-29T16:36:47.989Z,32.13
2022-11-29T16:41:09.013Z,34.40
2022-11-29T16:45:35.769Z,76.07
2022-11-29T16:49:39.444Z,43.40
2022-11-29T16:53:47.673Z,41.10
2022-11-29T16:57:53.360Z,45.65
2022-11-29T17:01:57.408Z,44.28
2022-11-29T17:06:01.668Z,49.38
2022-11-29T17:10:07.368Z,34.35
2022-11-29T17:14:12.291Z,62.35
2022-11-29T17:18:15.896Z,45.08
2022-11-29T17:22:19.372Z,51.28
2022-11-29T17:26:23.685Z,49.78
2022-11-29T17:30:30.148Z,60.63
2022-11-29T17:34:33.816Z,43.85
2022-11-29T17:38:37.776Z,52.65
2022-11-29T17:42:41.400Z,45.60
2022-11-29T17:46:46.357Z,57.70
2022-11-29T17:50:49.963Z,48.33
2022-11-29T17:54:53.376Z,44.53
2022-11-29T17:58:58.333Z,36.63
2022-11-29T18:03:03.995Z,48.58
2022-11-29T18:07:07.526Z,40.05
2022-11-29T18:11:13.930Z,37.63
2022-11-29T18:15:17.580Z,54.13
2022-11-29T18:19:23.910Z,69.32
2022-11-29T18:23:29.367Z,46.85
2022-11-29T18:27:32.827Z,54.33
2022-11-29T18:31:38.421Z,42.55
2022-11-29T18:35:43.400Z,44.65
2022-11-29T18:39:47.126Z,37.47
2022-11-29T18:43:56.791Z,44.55
2022-11-29T18:48:02.174Z,55.00
2022-11-29T18:52:07.300Z,47.25
2022-11-29T18:56:15.410Z,47.25
2022-11-29T19:00:19.264Z,46.67
2022-11-29T19:04:31.796Z,38.90
2022-11-29T19:08:37.436Z,51.15
2022-11-29T19:12:41.024Z,58.65
2022-11-29T19:16:47.438Z,60.90
2022-11-29T19:20:53.306Z,66.10
2022-11-29T19:24:58.279Z,40.42
2022-11-29T19:29:02.512Z,44.08
2022-11-29T19:33:05.954Z,48.45
2022-11-29T19:37:09.657Z,50.40
2022-11-29T19:41:16.360Z,36.97
2022-11-29T19:45:19.939Z,41.42
2022-11-29T19:49:24.455Z,44.47
2022-11-29T19:53:28.278Z,47.10
2022-11-29T19:57:33.241Z,49.92
2022-11-29T20:01:41.482Z,39.50
2022-11-29T20:05:55.308Z,50.00
2022-11-29T20:09:58.975Z,43.30
2022-11-29T20:14:06.264Z,45.25
2022-11-29T20:18:09.828Z,47.17
2022-11-29T20:22:13.446Z,46.95
2022-11-29T20:26:19.523Z,42.47
2022-11-29T20:30:25.937Z,48.50
2022-11-29T20:34:29.785Z,49.47
2022-11-29T20:38:42.736Z,35.85
2022-11-29T20:43:04.514Z,51.30
2022-11-29T20:47:19.505Z,56.83
2022-11-29T20:51:28.328Z,59.53
2022-11-29T20:55:31.944Z,57.53
2022-11-29T20:59:35.619Z,64.40
2022-11-29T21:03:40.582Z,210.27
2022-11-29T21:07:45.855Z,60.83
2022-11-29T21:11:49.927Z,73.72
2022-11-29T21:15:53.840Z,64.78
2022-11-29T21:19:59.983Z,73.07
2022-11-29T21:24:09.971Z,56.30
2022-11-29T21:28:16.321Z,57.75
2022-11-29T21:32:23.395Z,69.93
2022-11-29T21:36:28.443Z,60.58
2022-11-29T21:40:31.840Z,73.70
2022-11-29T21:44:35.292Z,71.68
2022-11-29T21:48:39.014Z,87.47
2022-11-29T21:52:44.342Z,70.53
2022-11-29T21:56:47.792Z,74.95
2022-11-29T22:00:51.135Z,67.50
2022-11-29T22:04:54.598Z,74.63
2022-11-29T22:09:00.086Z,105.72
2022-11-29T22:13:03.599Z,126.25
2022-11-29T22:17:07.108Z,121.43
2022-11-29T22:21:10.455Z,126.10
2022-11-29T22:25:15.756Z,126.60
2022-11-29T22:29:19.211Z,134.88
2022-11-29T22:33:22.845Z,140.75
2022-11-29T22:37:26.191Z,135.63
2022-11-29T22:41:31.942Z,115.35
2022-11-29T22:45:35.325Z,110.43
2022-11-29T22:49:38.754Z,94.80
2022-11-29T22:53:44.152Z,100.38
2022-11-29T22:57:49.165Z,79.28
2022-11-29T23:01:52.596Z,97.63
2022-11-29T23:05:55.988Z,79.18
2022-11-29T23:09:59.309Z,86.68
2022-11-29T23:14:04.150Z,81.43
2022-11-29T23:18:07.561Z,76.78
2022-11-29T23:22:10.917Z,77.97
2022-11-29T23:26:20.912Z,110.97
2022-11-29T23:30:25.670Z,81.88
2022-11-29T23:34:29.110Z,100.65
2022-11-29T23:38:32.808Z,82.68
2022-11-29T23:42:36.175Z,80.88
2022-11-29T23:46:40.937Z,99.05
2022-11-29T23:50:44.795Z,85.65
2022-11-29T23:54:48.328Z,83.35
2022-11-29T23:58:51.899Z,80.35
